Serena, Illinois
Current Conditions -  °F | °C
As of 2:15 AM on Thursday 27 Nov 2014 (Local Time) from KC09 Reporting Station
Haze Haze  
Wind Chill: 15°   Ceiling: 4000
Heat Index: 24°   Visibility: 5mi
Dew Point: 21°   Wind: 7mph
Humidity: 90%   Direction: 320°NW
Pressure: 30.24"   Gusts: NA
Location:  41.49°N, 88.73°W
Report Text: KC09 270815Z AUTO 32006KT 5SM BR OVC040 M05/M06 A3024 RMK AO2 T10471061
Loading
Personal Weather Stations






























Interactive Weather Map New forecast layout! Learn more

10-Day Weather Forecast

Advertisements
Track Severe Weather on mobile